createdAt,value
2023-04-17T00:00:12.417Z,4.03
2023-04-17T00:02:41.374Z,3.53
2023-04-17T00:05:11.074Z,3.75
2023-04-17T00:07:41.346Z,3.22
2023-04-17T00:10:10.903Z,4.03
2023-04-17T00:12:39.705Z,3.70
2023-04-17T00:15:08.944Z,3.70
2023-04-17T00:17:37.834Z,3.30
2023-04-17T00:20:10.311Z,3.58
2023-04-17T00:22:39.112Z,3.65
2023-04-17T00:25:12.888Z,3.17
2023-04-17T00:27:41.608Z,3.55
2023-04-17T00:30:10.903Z,3.72
2023-04-17T00:32:39.784Z,3.60
2023-04-17T00:35:09.090Z,3.67
2023-04-17T00:37:37.779Z,4.35
2023-04-17T00:40:06.923Z,4.00
2023-04-17T00:42:37.033Z,3.60
2023-04-17T00:45:06.232Z,3.33
2023-04-17T00:47:35.141Z,4.25
2023-04-17T00:50:04.173Z,4.10
2023-04-17T00:52:32.969Z,3.35
2023-04-17T00:55:01.749Z,4.13
2023-04-17T00:57:30.720Z,3.70
2023-04-17T01:00:01.512Z,4.10
2023-04-17T01:02:30.816Z,3.92
2023-04-17T01:04:59.659Z,3.72
2023-04-17T01:07:29.452Z,3.20
2023-04-17T01:09:58.330Z,3.22
2023-04-17T01:12:27.667Z,3.55
2023-04-17T01:14:57.028Z,3.08
2023-04-17T01:17:27.763Z,3.58
2023-04-17T01:19:56.706Z,3.88
2023-04-17T01:22:26.346Z,3.60
2023-04-17T01:25:00.580Z,3.55
2023-04-17T01:27:36.290Z,3.20
2023-04-17T01:30:05.123Z,3.22
2023-04-17T01:32:38.810Z,3.50
2023-04-17T01:35:08.074Z,3.63
2023-04-17T01:37:36.719Z,3.40
2023-04-17T01:40:09.772Z,2.92
2023-04-17T01:42:38.433Z,3.28
2023-04-17T01:45:08.170Z,3.92
2023-04-17T01:47:37.195Z,3.03
2023-04-17T01:50:06.139Z,3.38
2023-04-17T01:52:34.780Z,3.38
2023-04-17T01:55:03.963Z,3.33
2023-04-17T01:57:34.846Z,3.17
2023-04-17T02:00:07.249Z,3.38
2023-04-17T02:02:41.408Z,3.10
2023-04-17T02:05:10.569Z,3.28
2023-04-17T02:07:39.342Z,3.30
2023-04-17T02:10:08.519Z,2.78
2023-04-17T02:12:39.968Z,3.35
2023-04-17T02:15:09.467Z,3.42
2023-04-17T02:17:38.176Z,3.42
2023-04-17T02:20:09.200Z,3.58
2023-04-17T02:22:37.875Z,3.15
2023-04-17T02:25:07.017Z,3.65
2023-04-17T02:27:36.452Z,3.17
2023-04-17T02:30:07.099Z,3.28
2023-04-17T02:32:35.925Z,3.50
2023-04-17T02:35:06.251Z,3.45
2023-04-17T02:37:36.184Z,3.35
2023-04-17T02:40:06.772Z,3.03
2023-04-17T02:42:35.438Z,3.53
2023-04-17T02:45:06.966Z,3.47
2023-04-17T02:47:35.719Z,3.00
2023-04-17T02:50:05.342Z,3.17
2023-04-17T02:52:39.951Z,3.33
2023-04-17T02:55:09.740Z,3.60
2023-04-17T02:57:39.918Z,3.03
2023-04-17T03:00:13.886Z,3.03
2023-04-17T03:02:42.931Z,3.13
2023-04-17T03:05:15.012Z,4.20
2023-04-17T03:07:44.054Z,3.28
2023-04-17T03:10:13.485Z,3.70
2023-04-17T03:12:42.180Z,3.42
2023-04-17T03:15:12.929Z,3.55
2023-04-17T03:17:41.648Z,3.67
2023-04-17T03:20:10.787Z,3.70
2023-04-17T03:22:39.449Z,4.00
2023-04-17T03:25:09.075Z,4.05
2023-04-17T03:27:47.701Z,3.85
2023-04-17T03:30:19.329Z,3.90
2023-04-17T03:32:50.878Z,4.40
2023-04-17T03:35:19.626Z,4.03
2023-04-17T03:37:48.249Z,3.70
2023-04-17T03:40:17.167Z,4.30
2023-04-17T03:42:48.324Z,4.15
2023-04-17T03:45:17.896Z,3.83
2023-04-17T03:47:48.831Z,3.17
2023-04-17T03:50:17.881Z,4.57
2023-04-17T03:52:52.607Z,4.55
2023-04-17T03:55:21.934Z,3.85
2023-04-17T03:57:52.254Z,4.13
2023-04-17T04:00:22.437Z,4.00
2023-04-17T04:02:58.125Z,4.70
2023-04-17T04:05:31.901Z,4.57
2023-04-17T04:08:00.577Z,4.25
2023-04-17T04:10:38.289Z,4.32
2023-04-17T04:13:07.825Z,4.20
2023-04-17T04:15:36.678Z,3.92
2023-04-17T04:18:08.697Z,4.18
2023-04-17T04:20:37.345Z,4.88
2023-04-17T04:23:17.188Z,3.92
2023-04-17T04:25:49.662Z,3.60
2023-04-17T04:28:38.237Z,3.15
2023-04-17T04:31:09.863Z,3.63
2023-04-17T04:33:45.106Z,3.80
2023-04-17T04:36:20.610Z,4.03
2023-04-17T04:38:59.828Z,4.28
2023-04-17T04:41:34.369Z,3.88
2023-04-17T04:44:05.789Z,3.85
2023-04-17T04:46:37.332Z,3.45
2023-04-17T04:49:07.958Z,3.30
2023-04-17T04:51:38.173Z,3.60
2023-04-17T04:54:08.707Z,3.85
2023-04-17T04:56:45.920Z,3.22
2023-04-17T04:59:16.671Z,4.28
2023-04-17T05:01:52.009Z,4.38
2023-04-17T05:04:24.242Z,4.15
2023-04-17T05:06:58.110Z,4.30
2023-04-17T05:09:27.182Z,4.05
2023-04-17T05:11:58.469Z,3.95
2023-04-17T05:14:27.194Z,4.60
2023-04-17T05:16:56.375Z,4.47
2023-04-17T05:19:27.160Z,3.92
2023-04-17T05:22:01.087Z,4.30
2023-04-17T05:24:31.139Z,3.63
2023-04-17T05:27:00.023Z,4.40
2023-04-17T05:29:28.686Z,3.58
2023-04-17T05:31:58.246Z,4.65
2023-04-17T05:34:51.440Z,3.47
2023-04-17T05:37:24.577Z,3.50
2023-04-17T05:39:53.411Z,3.95
2023-04-17T05:42:22.129Z,4.47
2023-04-17T05:44:51.163Z,3.72
2023-04-17T05:47:20.737Z,3.92
2023-04-17T05:49:51.569Z,3.60
2023-04-17T05:52:20.466Z,3.30
2023-04-17T05:54:50.375Z,4.15
2023-04-17T05:57:21.054Z,2.78
2023-04-17T05:59:50.400Z,2.70
2023-04-17T06:02:19.206Z,3.50
2023-04-17T06:04:48.345Z,3.30
2023-04-17T06:07:19.632Z,3.55
2023-04-17T06:09:48.354Z,3.25
2023-04-17T06:12:17.022Z,2.90
2023-04-17T06:14:46.758Z,3.83
2023-04-17T06:17:18.134Z,3.22
2023-04-17T06:19:46.969Z,3.30
2023-04-17T06:22:15.766Z,3.13
2023-04-17T06:24:45.830Z,3.72
2023-04-17T06:27:14.654Z,3.17
2023-04-17T06:29:44.150Z,3.35
2023-04-17T06:32:12.862Z,3.20
2023-04-17T06:34:58.151Z,2.85
2023-04-17T06:37:40.457Z,3.53
2023-04-17T06:40:12.739Z,3.28
2023-04-17T06:42:42.060Z,2.80
2023-04-17T06:45:14.817Z,3.42
2023-04-17T06:47:43.609Z,2.88
2023-04-17T06:50:12.582Z,2.90
2023-04-17T06:52:41.390Z,3.25
2023-04-17T06:55:12.294Z,2.67
2023-04-17T06:57:40.946Z,2.50
2023-04-17T07:00:10.234Z,2.80
2023-04-17T07:02:39.057Z,2.40
2023-04-17T07:05:08.061Z,2.63
2023-04-17T07:07:36.925Z,2.90
2023-04-17T07:10:06.012Z,2.90
2023-04-17T07:12:36.115Z,2.92
2023-04-17T07:15:05.146Z,3.17
2023-04-17T07:17:33.814Z,2.88
2023-04-17T07:20:02.480Z,2.58
2023-04-17T07:22:31.089Z,2.95
2023-04-17T07:25:00.024Z,4.30
2023-04-17T07:27:29.125Z,2.90
2023-04-17T07:29:59.287Z,3.22
2023-04-17T07:32:28.518Z,2.83
2023-04-17T07:34:57.337Z,3.97
2023-04-17T07:37:26.093Z,2.72
2023-04-17T07:39:54.722Z,2.92
2023-04-17T07:42:23.376Z,2.50
2023-04-17T07:44:52.168Z,2.05
2023-04-17T07:47:24.039Z,2.65
2023-04-17T07:49:53.155Z,2.05
2023-04-17T07:52:21.822Z,2.50
2023-04-17T07:54:50.714Z,2.88
2023-04-17T07:57:19.449Z,2.65
2023-04-17T07:59:48.190Z,2.85
2023-04-17T08:02:17.328Z,2.88
2023-04-17T08:04:47.759Z,2.80
2023-04-17T08:07:18.354Z,2.35
2023-04-17T08:09:46.949Z,2.72
2023-04-17T08:12:15.657Z,2.72
2023-04-17T08:14:44.467Z,2.33
2023-04-17T08:17:13.183Z,2.50
2023-04-17T08:19:41.804Z,2.30
2023-04-17T08:22:11.855Z,2.17
2023-04-17T08:24:40.661Z,2.70
2023-04-17T08:27:09.330Z,2.78
2023-04-17T08:29:39.796Z,2.70
2023-04-17T08:32:14.760Z,2.78
2023-04-17T08:34:44.415Z,2.72
2023-04-17T08:37:14.685Z,3.60
2023-04-17T08:39:43.419Z,2.63
2023-04-17T08:42:17.695Z,2.50
2023-04-17T08:44:47.691Z,1.98
2023-04-17T08:47:16.952Z,2.40
2023-04-17T08:49:46.118Z,2.00
2023-04-17T08:52:16.823Z,1.92
2023-04-17T08:54:48.353Z,2.30
2023-04-17T08:57:21.003Z,2.30
2023-04-17T08:59:49.726Z,2.13
2023-04-17T09:02:18.504Z,2.10
2023-04-17T09:04:48.519Z,2.28
2023-04-17T09:07:18.717Z,2.08
2023-04-17T09:09:53.917Z,2.17
2023-04-17T09:12:22.853Z,2.20
2023-04-17T09:14:51.597Z,2.33
2023-04-17T09:17:20.860Z,2.03
2023-04-17T09:20:09.788Z,2.10
2023-04-17T09:22:41.245Z,2.45
2023-04-17T09:25:19.238Z,1.80
2023-04-17T09:27:48.094Z,2.45
2023-04-17T09:30:17.036Z,2.38
2023-04-17T09:32:45.788Z,2.45
2023-04-17T09:35:25.582Z,2.15
2023-04-17T09:37:56.247Z,2.40
2023-04-17T09:40:26.004Z,2.10
2023-04-17T09:42:58.437Z,2.13
2023-04-17T09:45:29.704Z,2.70
2023-04-17T09:47:58.454Z,2.10
2023-04-17T09:50:27.313Z,2.50
2023-04-17T09:52:57.753Z,2.53
2023-04-17T09:55:30.198Z,2.30
2023-04-17T09:57:59.706Z,2.35
2023-04-17T10:00:29.396Z,3.35
2023-04-17T10:02:59.107Z,1.92
2023-04-17T10:05:29.206Z,2.33
2023-04-17T10:07:59.627Z,2.40
2023-04-17T10:10:30.367Z,2.47
2023-04-17T10:13:00.432Z,2.00
2023-04-17T10:15:29.530Z,2.50
2023-04-17T10:18:18.368Z,2.60
2023-04-17T10:20:48.537Z,3.28
2023-04-17T10:23:34.107Z,1.98
2023-04-17T10:26:21.537Z,2.42
2023-04-17T10:28:50.935Z,2.00
2023-04-17T10:31:19.766Z,2.20
2023-04-17T10:33:51.934Z,2.42
2023-04-17T10:36:35.430Z,2.33
2023-04-17T10:39:15.322Z,2.35
2023-04-17T10:41:59.967Z,2.25
2023-04-17T10:44:28.642Z,2.30
2023-04-17T10:46:57.676Z,1.90
2023-04-17T10:49:26.653Z,2.22
2023-04-17T10:51:55.452Z,1.95
2023-04-17T10:54:25.500Z,1.98
2023-04-17T10:56:55.962Z,2.05
2023-04-17T10:59:30.010Z,2.28
2023-04-17T11:02:01.504Z,2.60
2023-04-17T11:04:31.510Z,2.30
2023-04-17T11:07:00.331Z,2.03
2023-04-17T11:09:30.986Z,2.38
2023-04-17T11:12:03.145Z,2.38
2023-04-17T11:14:32.363Z,2.28
2023-04-17T11:17:01.236Z,2.13
2023-04-17T11:19:30.128Z,2.25
2023-04-17T11:22:01.253Z,2.20
2023-04-17T11:24:31.760Z,2.00
2023-04-17T11:27:01.951Z,2.30
2023-04-17T11:29:31.138Z,2.38
2023-04-17T11:32:00.927Z,2.13
2023-04-17T11:34:30.365Z,2.40
2023-04-17T11:36:59.812Z,2.28
2023-04-17T11:39:30.517Z,2.78
2023-04-17T11:42:02.378Z,2.70
2023-04-17T11:44:31.022Z,2.30
2023-04-17T11:47:00.273Z,2.88
2023-04-17T11:49:29.796Z,2.47
2023-04-17T11:51:58.789Z,2.10
2023-04-17T11:54:28.010Z,3.00
2023-04-17T11:57:02.251Z,2.35
2023-04-17T11:59:35.342Z,2.08
2023-04-17T12:02:04.289Z,2.35
2023-04-17T12:04:34.947Z,2.30
2023-04-17T12:07:04.083Z,2.22
2023-04-17T12:09:32.814Z,1.90
2023-04-17T12:12:03.888Z,2.03
2023-04-17T12:14:32.882Z,2.55
2023-04-17T12:17:01.587Z,2.40
2023-04-17T12:19:31.962Z,2.40
2023-04-17T12:22:00.873Z,2.03
2023-04-17T12:24:29.721Z,2.17
2023-04-17T12:26:58.814Z,2.38
2023-04-17T12:29:40.399Z,2.40
2023-04-17T12:32:12.523Z,2.67
2023-04-17T12:34:41.595Z,2.50
2023-04-17T12:37:10.350Z,2.70
2023-04-17T12:39:39.042Z,2.95
2023-04-17T12:42:07.779Z,2.83
2023-04-17T12:44:37.858Z,2.63
2023-04-17T12:47:06.615Z,2.35
2023-04-17T12:49:35.324Z,2.33
2023-04-17T12:52:04.552Z,2.50
2023-04-17T12:54:33.395Z,2.78
2023-04-17T12:57:02.912Z,2.10
2023-04-17T12:59:31.542Z,2.78
2023-04-17T13:02:01.619Z,2.70
2023-04-17T13:04:30.545Z,4.22
2023-04-17T13:06:59.791Z,2.75
2023-04-17T13:09:28.472Z,2.70
2023-04-17T13:11:57.636Z,3.92
2023-04-17T13:14:26.595Z,2.63
2023-04-17T13:16:55.682Z,2.63
2023-04-17T13:19:25.814Z,2.60
2023-04-17T13:21:54.477Z,2.70
2023-04-17T13:24:23.077Z,2.58
2023-04-17T13:26:51.856Z,2.40
2023-04-17T13:29:20.815Z,2.20
2023-04-17T13:31:49.649Z,2.88
2023-04-17T13:34:18.547Z,2.50
2023-04-17T13:36:48.670Z,2.80
2023-04-17T13:39:17.539Z,2.38
2023-04-17T13:41:46.158Z,2.30
2023-04-17T13:44:16.284Z,2.33
2023-04-17T13:46:45.210Z,2.50
2023-04-17T13:49:14.922Z,3.35
2023-04-17T13:51:43.715Z,2.45
2023-04-17T13:54:13.773Z,2.47
2023-04-17T13:56:42.947Z,2.20
2023-04-17T13:59:11.773Z,3.78
2023-04-17T14:01:40.830Z,2.55
2023-04-17T14:04:09.850Z,2.33
2023-04-17T14:06:38.720Z,2.70
2023-04-17T14:09:07.521Z,2.10
2023-04-17T14:11:37.565Z,2.38
2023-04-17T14:14:06.636Z,2.88
2023-04-17T14:16:35.673Z,2.58
2023-04-17T14:19:13.362Z,2.30
2023-04-17T14:21:43.424Z,2.13
2023-04-17T14:24:12.292Z,2.33
2023-04-17T14:26:42.577Z,2.60
2023-04-17T14:29:13.956Z,2.25
2023-04-17T14:31:43.079Z,2.40
2023-04-17T14:34:11.703Z,3.08
2023-04-17T14:36:41.512Z,2.40
2023-04-17T14:39:11.380Z,2.22
2023-04-17T14:41:40.348Z,3.47
2023-04-17T14:44:10.683Z,2.67
2023-04-17T14:46:39.582Z,2.88
2023-04-17T14:49:08.599Z,2.50
2023-04-17T14:51:37.297Z,2.40
2023-04-17T14:54:06.520Z,2.65
2023-04-17T14:56:35.567Z,2.38
2023-04-17T14:59:05.185Z,2.40
2023-04-17T15:01:35.313Z,3.08
2023-04-17T15:04:04.637Z,2.50
2023-04-17T15:06:33.508Z,2.47
2023-04-17T15:09:02.117Z,2.50
2023-04-17T15:11:30.754Z,2.08
2023-04-17T15:13:59.521Z,2.20
2023-04-17T15:16:28.225Z,2.08
2023-04-17T15:18:58.295Z,2.42
2023-04-17T15:21:27.277Z,2.70
2023-04-17T15:23:55.963Z,2.28
2023-04-17T15:26:24.727Z,2.22
2023-04-17T15:28:53.342Z,2.80
2023-04-17T15:31:22.290Z,2.40
2023-04-17T15:33:51.073Z,1.92
2023-04-17T15:36:21.212Z,3.30
2023-04-17T15:38:49.982Z,2.60
2023-04-17T15:41:24.422Z,2.05
2023-04-17T15:43:53.115Z,2.17
2023-04-17T15:46:21.848Z,2.78
2023-04-17T15:49:04.947Z,2.75
2023-04-17T15:51:39.609Z,2.85
2023-04-17T15:54:11.984Z,1.92
2023-04-17T15:56:40.839Z,2.10
2023-04-17T15:59:09.651Z,2.53
2023-04-17T16:01:38.314Z,2.40
2023-04-17T16:04:07.528Z,2.60
2023-04-17T16:06:37.843Z,2.30
2023-04-17T16:09:06.552Z,2.22
2023-04-17T16:11:35.326Z,2.67
2023-04-17T16:14:04.082Z,2.28
2023-04-17T16:16:32.899Z,2.45
2023-04-17T16:19:01.661Z,2.47
2023-04-17T16:21:30.851Z,2.10
2023-04-17T16:24:01.326Z,2.10
2023-04-17T16:26:31.138Z,2.70
2023-04-17T16:28:59.912Z,1.80
2023-04-17T16:31:28.933Z,2.20
2023-04-17T16:33:57.590Z,3.58
2023-04-17T16:36:27.317Z,2.05
2023-04-17T16:38:56.052Z,2.78
2023-04-17T16:41:26.064Z,2.40
2023-04-17T16:43:54.905Z,2.45
2023-04-17T16:46:35.441Z,2.17
2023-04-17T16:49:14.043Z,2.10
2023-04-17T16:51:43.156Z,2.03
2023-04-17T16:54:12.097Z,2.05
2023-04-17T16:56:42.816Z,2.35
2023-04-17T16:59:11.992Z,2.65
2023-04-17T17:01:40.872Z,2.00
2023-04-17T17:04:09.708Z,1.98
2023-04-17T17:06:38.386Z,2.10
2023-04-17T17:09:07.053Z,2.53
2023-04-17T17:11:35.821Z,2.40
2023-04-17T17:14:06.009Z,1.98
2023-04-17T17:16:34.756Z,2.20
2023-04-17T17:19:03.443Z,2.33
2023-04-17T17:21:32.570Z,1.90
2023-04-17T17:24:01.256Z,2.30
2023-04-17T17:26:29.925Z,2.03
2023-04-17T17:28:58.886Z,1.90
2023-04-17T17:31:28.963Z,3.58
2023-04-17T17:34:11.880Z,2.15
2023-04-17T17:36:50.902Z,2.05
2023-04-17T17:39:21.169Z,1.90
2023-04-17T17:41:50.029Z,2.00
2023-04-17T17:44:18.900Z,2.20
2023-04-17T17:46:48.979Z,2.20
2023-04-17T17:49:17.623Z,1.80
2023-04-17T17:51:46.214Z,2.00
2023-04-17T17:54:14.965Z,2.00
2023-04-17T17:56:43.674Z,2.58
2023-04-17T17:59:12.531Z,2.50
2023-04-17T18:01:41.426Z,2.20
2023-04-17T18:04:11.901Z,2.40
2023-04-17T18:06:41.064Z,2.00
2023-04-17T18:09:09.787Z,1.90
2023-04-17T18:11:38.873Z,2.17
2023-04-17T18:14:07.750Z,2.22
2023-04-17T18:16:37.549Z,2.40
2023-04-17T18:19:06.757Z,2.47
2023-04-17T18:21:36.826Z,2.40
2023-04-17T18:24:05.794Z,2.25
2023-04-17T18:26:34.555Z,3.50
2023-04-17T18:29:03.323Z,3.00
2023-04-17T18:31:32.090Z,3.53
2023-04-17T18:34:02.614Z,3.03
2023-04-17T18:36:31.435Z,2.70
2023-04-17T18:39:01.401Z,2.55
2023-04-17T18:41:30.189Z,2.90
2023-04-17T18:43:58.877Z,2.38
2023-04-17T18:46:30.511Z,2.67
2023-04-17T18:49:00.424Z,2.60
2023-04-17T18:51:29.080Z,2.45
2023-04-17T18:53:57.890Z,2.55
2023-04-17T18:56:27.992Z,2.03
2023-04-17T18:58:56.962Z,1.98
2023-04-17T19:01:26.182Z,1.70
2023-04-17T19:03:54.996Z,1.67
2023-04-17T19:06:23.806Z,1.65
2023-04-17T19:08:54.454Z,1.60
2023-04-17T19:11:23.258Z,1.60
2023-04-17T19:13:53.394Z,1.42
2023-04-17T19:16:23.451Z,1.80
2023-04-17T19:18:52.148Z,1.40
2023-04-17T19:21:20.767Z,1.65
2023-04-17T19:23:49.713Z,1.30
2023-04-17T19:26:18.388Z,1.55
2023-04-17T19:28:47.189Z,1.35
2023-04-17T19:31:17.386Z,1.50
2023-04-17T19:33:46.206Z,1.70
2023-04-17T19:36:14.928Z,2.00
2023-04-17T19:38:43.994Z,2.05
2023-04-17T19:41:14.879Z,1.90
2023-04-17T19:43:43.972Z,1.65
2023-04-17T19:46:13.312Z,1.70
2023-04-17T19:48:44.928Z,1.25
2023-04-17T19:51:14.482Z,1.60
2023-04-17T19:53:44.379Z,1.45
2023-04-17T19:56:13.543Z,1.70
2023-04-17T19:58:42.576Z,2.10
2023-04-17T20:01:11.603Z,1.67
2023-04-17T20:03:42.315Z,2.33
2023-04-17T20:06:13.949Z,2.28
2023-04-17T20:08:42.672Z,1.55
2023-04-17T20:11:12.142Z,1.75
2023-04-17T20:13:40.960Z,1.95
2023-04-17T20:16:09.722Z,1.77
2023-04-17T20:18:38.527Z,1.50
2023-04-17T20:21:07.488Z,1.80
2023-04-17T20:23:37.586Z,1.80
2023-04-17T20:26:06.488Z,1.70
2023-04-17T20:28:35.190Z,1.77
2023-04-17T20:31:04.635Z,1.80
2023-04-17T20:33:33.374Z,1.40
2023-04-17T20:36:02.130Z,1.73
2023-04-17T20:38:30.867Z,1.50
2023-04-17T20:41:00.880Z,1.40
2023-04-17T20:43:29.573Z,1.40
2023-04-17T20:45:59.082Z,1.63
2023-04-17T20:48:27.870Z,1.52
2023-04-17T20:50:57.167Z,1.58
2023-04-17T20:53:26.072Z,1.52
2023-04-17T20:55:57.260Z,1.70
2023-04-17T20:58:27.957Z,1.48
2023-04-17T21:01:01.234Z,1.70
2023-04-17T21:03:31.595Z,1.30
2023-04-17T21:06:00.722Z,1.50
2023-04-17T21:08:29.747Z,1.38
2023-04-17T21:10:58.643Z,1.70
2023-04-17T21:13:28.713Z,1.30
2023-04-17T21:15:57.585Z,1.70
2023-04-17T21:18:26.232Z,1.33
2023-04-17T21:20:55.040Z,1.38
2023-04-17T21:23:23.738Z,1.35
2023-04-17T21:25:53.700Z,1.60
2023-04-17T21:28:22.622Z,1.63
2023-04-17T21:30:52.743Z,1.52
2023-04-17T21:33:21.417Z,1.50
2023-04-17T21:35:50.257Z,1.75
2023-04-17T21:38:18.925Z,1.77
2023-04-17T21:40:51.294Z,1.30
2023-04-17T21:43:20.462Z,1.70
2023-04-17T21:45:50.046Z,1.73
2023-04-17T21:48:20.328Z,1.95
2023-04-17T21:50:49.026Z,1.50
2023-04-17T21:53:17.703Z,1.48
2023-04-17T21:55:46.346Z,1.40
2023-04-17T21:58:14.997Z,1.83
2023-04-17T22:00:43.871Z,1.92
2023-04-17T22:03:12.626Z,1.67
2023-04-17T22:05:42.857Z,1.40
2023-04-17T22:08:11.520Z,1.70
2023-04-17T22:10:40.307Z,1.50
2023-04-17T22:13:09.078Z,1.50
2023-04-17T22:15:38.151Z,1.50
2023-04-17T22:18:07.053Z,1.45
2023-04-17T22:20:35.801Z,1.58
2023-04-17T22:23:05.873Z,1.30
2023-04-17T22:25:34.699Z,1.63
2023-04-17T22:28:03.396Z,1.33
2023-04-17T22:30:32.130Z,1.58
2023-04-17T22:33:00.844Z,1.50
2023-04-17T22:35:29.597Z,2.10
2023-04-17T22:37:58.310Z,1.75
2023-04-17T22:40:29.959Z,1.58
2023-04-17T22:42:58.673Z,2.20
2023-04-17T22:45:27.282Z,2.25
2023-04-17T22:47:56.136Z,2.20
2023-04-17T22:50:24.944Z,1.90
2023-04-17T22:52:53.600Z,1.73
2023-04-17T22:55:22.318Z,1.48
2023-04-17T22:57:52.482Z,1.75
2023-04-17T23:00:21.244Z,1.83
2023-04-17T23:02:49.999Z,2.25
2023-04-17T23:05:19.044Z,1.55
2023-04-17T23:07:47.806Z,2.03
2023-04-17T23:10:16.530Z,1.90
2023-04-17T23:12:45.293Z,1.60
2023-04-17T23:15:15.605Z,1.83
2023-04-17T23:17:44.510Z,1.85
2023-04-17T23:20:13.687Z,1.83
2023-04-17T23:22:42.384Z,2.08
2023-04-17T23:25:11.805Z,1.80
2023-04-17T23:27:40.596Z,1.80
2023-04-17T23:30:09.861Z,1.80
2023-04-17T23:32:41.759Z,2.10
2023-04-17T23:35:11.172Z,2.10
2023-04-17T23:37:39.878Z,2.30
2023-04-17T23:40:09.538Z,1.67
2023-04-17T23:42:38.206Z,2.10
2023-04-17T23:45:07.491Z,1.83
2023-04-17T23:47:36.483Z,2.30
2023-04-17T23:50:07.480Z,2.13
2023-04-17T23:52:36.168Z,2.00
2023-04-17T23:55:04.948Z,1.70
2023-04-17T23:57:34.741Z,2.20
